sensor_id;sensor_type;location;lat;lon;timestamp;pressure;altitude;pressure_sealevel;temperature;humidity
22653;BME280;11493;43.344;26.226;2023-05-13T00:02:24;99834.44;;;10.35;83.83
22653;BME280;11493;43.344;26.226;2023-05-13T00:04:51;99856.25;;;10.45;83.92
22653;BME280;11493;43.344;26.226;2023-05-13T00:07:18;99849.63;;;10.46;83.75
22653;BME280;11493;43.344;26.226;2023-05-13T00:09:45;99849.03;;;10.49;83.90
22653;BME280;11493;43.344;26.226;2023-05-13T00:12:12;99850.97;;;10.49;84.20
22653;BME280;11493;43.344;26.226;2023-05-13T00:14:39;99861.88;;;10.54;84.68
22653;BME280;11493;43.344;26.226;2023-05-13T00:17:06;99852.00;;;10.53;84.79
22653;BME280;11493;43.344;26.226;2023-05-13T00:19:33;99846.66;;;10.43;85.39
22653;BME280;11493;43.344;26.226;2023-05-13T00:22:00;99850.34;;;10.38;86.35
22653;BME280;11493;43.344;26.226;2023-05-13T00:24:27;99853.59;;;10.40;86.75
22653;BME280;11493;43.344;26.226;2023-05-13T00:26:54;99856.44;;;10.35;87.08
22653;BME280;11493;43.344;26.226;2023-05-13T00:29:21;99863.66;;;10.31;87.84
22653;BME280;11493;43.344;26.226;2023-05-13T00:31:48;99873.94;;;10.26;88.70
22653;BME280;11493;43.344;26.226;2023-05-13T00:34:14;99866.34;;;10.17;89.13
22653;BME280;11493;43.344;26.226;2023-05-13T00:36:43;99866.09;;;10.14;89.12
22653;BME280;11493;43.344;26.226;2023-05-13T00:39:10;99860.31;;;10.15;88.68
22653;BME280;11493;43.344;26.226;2023-05-13T00:42:00;99873.75;;;10.17;89.93
22653;BME280;11493;43.344;26.226;2023-05-13T00:44:30;99866.03;;;10.19;89.19
22653;BME280;11493;43.344;26.226;2023-05-13T00:46:57;99861.38;;;10.19;88.94
22653;BME280;11493;43.344;26.226;2023-05-13T00:49:25;99867.91;;;10.24;88.27
22653;BME280;11493;43.344;26.226;2023-05-13T00:51:53;99858.38;;;10.16;88.62
22653;BME280;11493;43.344;26.226;2023-05-13T00:54:20;99856.22;;;10.13;87.93
22653;BME280;11493;43.344;26.226;2023-05-13T00:56:47;99851.31;;;10.10;87.95
22653;BME280;11493;43.344;26.226;2023-05-13T00:59:14;99865.00;;;10.15;88.35
22653;BME280;11493;43.344;26.226;2023-05-13T01:02:06;99828.88;;;10.03;87.85
22653;BME280;11493;43.344;26.226;2023-05-13T01:10:13;99860.91;;;10.31;85.54
22653;BME280;11493;43.344;26.226;2023-05-13T01:12:44;99851.41;;;10.24;84.87
22653;BME280;11493;43.344;26.226;2023-05-13T01:15:19;99853.47;;;10.13;86.03
22653;BME280;11493;43.344;26.226;2023-05-13T01:17:56;99843.00;;;9.96;88.11
22653;BME280;11493;43.344;26.226;2023-05-13T01:20:26;99861.94;;;9.98;88.69
22653;BME280;11493;43.344;26.226;2023-05-13T01:22:54;99863.06;;;9.97;88.72
22653;BME280;11493;43.344;26.226;2023-05-13T01:25:23;99862.84;;;9.93;88.60
22653;BME280;11493;43.344;26.226;2023-05-13T01:27:52;99876.88;;;9.92;89.21
22653;BME280;11493;43.344;26.226;2023-05-13T01:30:19;99879.94;;;9.90;89.60
22653;BME280;11493;43.344;26.226;2023-05-13T01:32:48;99862.75;;;9.79;89.43
22653;BME280;11493;43.344;26.226;2023-05-13T01:35:16;99874.28;;;10.00;88.12
22653;BME280;11493;43.344;26.226;2023-05-13T01:37:45;99878.31;;;10.08;86.35
22653;BME280;11493;43.344;26.226;2023-05-13T01:40:15;99874.13;;;9.92;86.02
22653;BME280;11493;43.344;26.226;2023-05-13T01:43:00;99876.50;;;9.79;87.90
22653;BME280;11493;43.344;26.226;2023-05-13T01:45:28;99864.13;;;9.63;90.02
22653;BME280;11493;43.344;26.226;2023-05-13T01:47:56;99862.56;;;9.57;90.14
22653;BME280;11493;43.344;26.226;2023-05-13T01:50:25;99885.06;;;9.59;89.86
22653;BME280;11493;43.344;26.226;2023-05-13T01:52:52;99891.44;;;9.54;90.21
22653;BME280;11493;43.344;26.226;2023-05-13T01:55:19;99879.47;;;9.45;90.40
22653;BME280;11493;43.344;26.226;2023-05-13T01:57:47;99893.03;;;9.37;91.55
22653;BME280;11493;43.344;26.226;2023-05-13T02:00:14;99898.34;;;9.28;92.30
22653;BME280;11493;43.344;26.226;2023-05-13T02:02:41;99894.47;;;9.29;92.64
22653;BME280;11493;43.344;26.226;2023-05-13T02:05:08;99888.22;;;9.23;93.54
22653;BME280;11493;43.344;26.226;2023-05-13T02:07:36;99883.91;;;9.17;94.08
22653;BME280;11493;43.344;26.226;2023-05-13T02:10:04;99880.44;;;9.07;94.29
22653;BME280;11493;43.344;26.226;2023-05-13T02:12:31;99885.41;;;9.05;93.54
22653;BME280;11493;43.344;26.226;2023-05-13T02:14:59;99889.25;;;9.04;93.04
22653;BME280;11493;43.344;26.226;2023-05-13T02:17:26;99890.09;;;9.04;92.53
22653;BME280;11493;43.344;26.226;2023-05-13T02:19:53;99887.44;;;8.94;93.24
22653;BME280;11493;43.344;26.226;2023-05-13T02:22:20;99900.34;;;8.94;94.49
22653;BME280;11493;43.344;26.226;2023-05-13T02:24:46;99903.47;;;8.87;95.28
22653;BME280;11493;43.344;26.226;2023-05-13T02:27:13;99901.91;;;8.76;95.74
22653;BME280;11493;43.344;26.226;2023-05-13T02:29:42;99912.38;;;8.74;96.20
22653;BME280;11493;43.344;26.226;2023-05-13T02:32:09;99889.22;;;8.56;96.57
22653;BME280;11493;43.344;26.226;2023-05-13T02:34:36;99886.25;;;8.47;96.53
22653;BME280;11493;43.344;26.226;2023-05-13T02:37:04;99898.53;;;8.55;97.00
22653;BME280;11493;43.344;26.226;2023-05-13T02:39:36;99878.59;;;8.44;97.31
22653;BME280;11493;43.344;26.226;2023-05-13T02:42:04;99873.16;;;8.39;97.20
22653;BME280;11493;43.344;26.226;2023-05-13T02:44:31;99895.06;;;8.44;98.29
22653;BME280;11493;43.344;26.226;2023-05-13T02:46:59;99887.97;;;8.38;98.45
22653;BME280;11493;43.344;26.226;2023-05-13T02:49:26;99881.44;;;8.29;98.33
22653;BME280;11493;43.344;26.226;2023-05-13T02:51:53;99895.97;;;8.35;98.92
22653;BME280;11493;43.344;26.226;2023-05-13T02:54:27;99895.69;;;8.31;98.45
22653;BME280;11493;43.344;26.226;2023-05-13T02:56:54;99906.13;;;8.29;98.75
22653;BME280;11493;43.344;26.226;2023-05-13T02:59:21;99907.78;;;8.25;98.34
22653;BME280;11493;43.344;26.226;2023-05-13T03:01:48;99901.47;;;8.24;98.32
22653;BME280;11493;43.344;26.226;2023-05-13T03:04:15;99890.34;;;8.16;98.77
22653;BME280;11493;43.344;26.226;2023-05-13T03:06:43;99884.31;;;8.14;98.75
22653;BME280;11493;43.344;26.226;2023-05-13T03:09:09;99889.84;;;8.09;99.16
22653;BME280;11493;43.344;26.226;2023-05-13T03:11:37;99897.53;;;8.07;98.89
22653;BME280;11493;43.344;26.226;2023-05-13T03:14:04;99906.84;;;8.06;98.96
22653;BME280;11493;43.344;26.226;2023-05-13T03:16:31;99896.81;;;7.91;99.85
22653;BME280;11493;43.344;26.226;2023-05-13T03:18:58;99893.53;;;7.89;100.00
22653;BME280;11493;43.344;26.226;2023-05-13T03:21:25;99907.50;;;7.87;100.00
22653;BME280;11493;43.344;26.226;2023-05-13T03:23:52;99905.06;;;7.81;100.00
22653;BME280;11493;43.344;26.226;2023-05-13T03:26:20;99898.78;;;7.80;99.88
22653;BME280;11493;43.344;26.226;2023-05-13T03:28:47;99913.56;;;7.84;100.00
22653;BME280;11493;43.344;26.226;2023-05-13T03:31:15;99923.66;;;7.89;100.00
22653;BME280;11493;43.344;26.226;2023-05-13T03:33:42;99912.44;;;7.85;100.00
22653;BME280;11493;43.344;26.226;2023-05-13T03:36:11;99905.91;;;7.81;100.00
22653;BME280;11493;43.344;26.226;2023-05-13T03:38:38;99914.34;;;7.90;100.00
22653;BME280;11493;43.344;26.226;2023-05-13T03:41:04;99909.97;;;7.89;100.00
22653;BME280;11493;43.344;26.226;2023-05-13T03:43:32;99922.84;;;7.88;100.00
22653;BME280;11493;43.344;26.226;2023-05-13T03:46:02;99913.84;;;7.78;100.00
22653;BME280;11493;43.344;26.226;2023-05-13T03:48:29;99935.47;;;7.84;100.00
22653;BME280;11493;43.344;26.226;2023-05-13T03:51:00;99942.81;;;7.94;100.00
22653;BME280;11493;43.344;26.226;2023-05-13T03:53:28;99950.47;;;7.97;100.00
22653;BME280;11493;43.344;26.226;2023-05-13T03:55:55;99949.63;;;8.02;99.82
22653;BME280;11493;43.344;26.226;2023-05-13T03:58:21;99940.25;;;8.13;99.01
22653;BME280;11493;43.344;26.226;2023-05-13T04:00:48;99960.41;;;8.27;98.15
22653;BME280;11493;43.344;26.226;2023-05-13T04:03:16;99953.84;;;8.23;97.17
22653;BME280;11493;43.344;26.226;2023-05-13T04:05:46;99951.63;;;8.30;96.13
22653;BME280;11493;43.344;26.226;2023-05-13T04:08:14;99962.50;;;8.45;94.91
22653;BME280;11493;43.344;26.226;2023-05-13T04:10:42;99957.59;;;8.42;94.39
22653;BME280;11493;43.344;26.226;2023-05-13T04:13:09;99961.97;;;8.43;94.88
22653;BME280;11493;43.344;26.226;2023-05-13T04:15:37;99966.31;;;8.49;95.47
22653;BME280;11493;43.344;26.226;2023-05-13T04:18:05;99956.09;;;8.60;94.69
22653;BME280;11493;43.344;26.226;2023-05-13T04:20:33;99962.91;;;8.68;93.97
22653;BME280;11493;43.344;26.226;2023-05-13T04:23:00;99949.22;;;8.63;94.77
22653;BME280;11493;43.344;26.226;2023-05-13T04:25:28;99970.75;;;8.79;95.00
22653;BME280;11493;43.344;26.226;2023-05-13T04:27:55;99953.72;;;8.82;94.27
22653;BME280;11493;43.344;26.226;2023-05-13T04:30:28;99969.97;;;9.03;94.02
22653;BME280;11493;43.344;26.226;2023-05-13T04:32:55;99963.19;;;8.95;94.11
22653;BME280;11493;43.344;26.226;2023-05-13T04:35:23;99959.03;;;8.98;93.15
22653;BME280;11493;43.344;26.226;2023-05-13T04:37:54;99968.25;;;9.12;93.11
22653;BME280;11493;43.344;26.226;2023-05-13T04:40:21;99982.97;;;9.21;92.70
22653;BME280;11493;43.344;26.226;2023-05-13T04:42:50;99981.59;;;9.23;92.88
22653;BME280;11493;43.344;26.226;2023-05-13T04:45:27;99976.00;;;9.34;92.22
22653;BME280;11493;43.344;26.226;2023-05-13T04:47:55;99984.06;;;9.49;91.54
22653;BME280;11493;43.344;26.226;2023-05-13T04:50:24;99985.59;;;9.60;91.19
22653;BME280;11493;43.344;26.226;2023-05-13T04:52:51;99994.22;;;9.72;90.41
22653;BME280;11493;43.344;26.226;2023-05-13T04:55:21;99996.91;;;9.77;89.08
22653;BME280;11493;43.344;26.226;2023-05-13T04:57:49;100013.97;;;9.98;88.05
22653;BME280;11493;43.344;26.226;2023-05-13T05:00:16;99977.94;;;10.00;87.42
22653;BME280;11493;43.344;26.226;2023-05-13T05:02:47;100010.03;;;10.28;85.00
22653;BME280;11493;43.344;26.226;2023-05-13T05:05:14;100008.78;;;10.39;84.10
22653;BME280;11493;43.344;26.226;2023-05-13T05:07:44;100004.97;;;10.54;83.75
22653;BME280;11493;43.344;26.226;2023-05-13T05:10:11;99995.44;;;10.65;81.23
22653;BME280;11493;43.344;26.226;2023-05-13T05:12:47;99999.44;;;10.92;79.83
22653;BME280;11493;43.344;26.226;2023-05-13T05:15:14;100004.38;;;11.08;78.03
22653;BME280;11493;43.344;26.226;2023-05-13T05:17:44;99995.53;;;11.11;78.63
22653;BME280;11493;43.344;26.226;2023-05-13T05:20:11;100000.22;;;11.25;78.15
22653;BME280;11493;43.344;26.226;2023-05-13T05:22:39;99997.97;;;11.27;76.58
22653;BME280;11493;43.344;26.226;2023-05-13T05:25:09;99995.06;;;11.50;75.66
22653;BME280;11493;43.344;26.226;2023-05-13T05:27:40;100009.16;;;11.76;73.76
22653;BME280;11493;43.344;26.226;2023-05-13T05:30:09;99999.78;;;11.91;73.68
22653;BME280;11493;43.344;26.226;2023-05-13T05:32:37;99991.28;;;12.01;73.22
22653;BME280;11493;43.344;26.226;2023-05-13T05:35:38;99997.09;;;12.27;71.26
22653;BME280;11493;43.344;26.226;2023-05-13T05:38:10;99985.81;;;12.37;71.70
22653;BME280;11493;43.344;26.226;2023-05-13T05:40:47;99988.22;;;12.53;70.85
22653;BME280;11493;43.344;26.226;2023-05-13T05:43:14;99994.31;;;12.63;71.32
22653;BME280;11493;43.344;26.226;2023-05-13T05:45:42;99996.91;;;12.82;70.82
22653;BME280;11493;43.344;26.226;2023-05-13T05:48:13;100000.84;;;12.90;70.91
22653;BME280;11493;43.344;26.226;2023-05-13T05:50:41;100001.91;;;13.02;69.40
22653;BME280;11493;43.344;26.226;2023-05-13T05:53:11;100039.44;;;13.17;69.26
22653;BME280;11493;43.344;26.226;2023-05-13T05:55:39;100019.34;;;13.25;68.36
22653;BME280;11493;43.344;26.226;2023-05-13T05:58:17;100024.72;;;13.30;68.36
22653;BME280;11493;43.344;26.226;2023-05-13T06:00:45;100008.47;;;13.37;68.26
22653;BME280;11493;43.344;26.226;2023-05-13T06:03:12;100004.53;;;13.61;66.36
22653;BME280;11493;43.344;26.226;2023-05-13T06:05:40;100004.44;;;13.74;66.26
22653;BME280;11493;43.344;26.226;2023-05-13T06:08:07;100021.44;;;13.90;65.92
22653;BME280;11493;43.344;26.226;2023-05-13T06:10:34;100019.97;;;13.93;65.36
22653;BME280;11493;43.344;26.226;2023-05-13T06:13:00;100022.78;;;14.01;65.04
22653;BME280;11493;43.344;26.226;2023-05-13T06:15:28;100012.38;;;14.24;63.27
22653;BME280;11493;43.344;26.226;2023-05-13T06:17:55;100021.09;;;14.49;61.95
22653;BME280;11493;43.344;26.226;2023-05-13T06:20:23;100020.78;;;14.67;60.36
22653;BME280;11493;43.344;26.226;2023-05-13T06:22:50;99996.19;;;14.66;60.01
22653;BME280;11493;43.344;26.226;2023-05-13T06:25:17;100006.59;;;14.86;61.35
22653;BME280;11493;43.344;26.226;2023-05-13T06:27:45;100003.97;;;15.07;60.54
22653;BME280;11493;43.344;26.226;2023-05-13T06:30:12;99993.34;;;15.18;59.46
22653;BME280;11493;43.344;26.226;2023-05-13T06:32:40;100007.16;;;15.43;59.58
22653;BME280;11493;43.344;26.226;2023-05-13T06:35:26;100011.38;;;15.58;60.47
22653;BME280;11493;43.344;26.226;2023-05-13T06:37:53;100006.66;;;15.59;60.14
22653;BME280;11493;43.344;26.226;2023-05-13T06:40:20;100013.09;;;15.71;58.72
22653;BME280;11493;43.344;26.226;2023-05-13T06:42:47;100009.13;;;15.90;58.17
22653;BME280;11493;43.344;26.226;2023-05-13T06:45:20;100003.72;;;15.93;57.52
22653;BME280;11493;43.344;26.226;2023-05-13T06:47:50;99998.63;;;15.95;57.46
22653;BME280;11493;43.344;26.226;2023-05-13T06:50:18;100002.53;;;16.03;57.97
22653;BME280;11493;43.344;26.226;2023-05-13T06:52:46;99993.75;;;16.22;57.04
22653;BME280;11493;43.344;26.226;2023-05-13T06:55:13;99987.25;;;16.38;55.75
22653;BME280;11493;43.344;26.226;2023-05-13T06:57:40;99989.44;;;16.54;56.05
22653;BME280;11493;43.344;26.226;2023-05-13T07:00:10;100008.47;;;16.64;55.83
22653;BME280;11493;43.344;26.226;2023-05-13T07:02:37;99995.66;;;16.51;56.38
22653;BME280;11493;43.344;26.226;2023-05-13T07:05:05;100007.88;;;16.58;55.81
22653;BME280;11493;43.344;26.226;2023-05-13T07:07:33;100010.44;;;16.63;56.16
22653;BME280;11493;43.344;26.226;2023-05-13T07:10:00;100006.34;;;16.69;55.26
22653;BME280;11493;43.344;26.226;2023-05-13T07:12:27;100004.28;;;16.58;54.64
22653;BME280;11493;43.344;26.226;2023-05-13T07:14:54;100006.44;;;16.52;53.27
22653;BME280;11493;43.344;26.226;2023-05-13T07:17:22;100016.00;;;16.63;54.31
22653;BME280;11493;43.344;26.226;2023-05-13T07:19:57;100013.88;;;16.69;55.11
22653;BME280;11493;43.344;26.226;2023-05-13T07:22:24;100012.50;;;16.75;54.66
22653;BME280;11493;43.344;26.226;2023-05-13T07:24:50;100003.16;;;16.80;54.21
22653;BME280;11493;43.344;26.226;2023-05-13T07:27:17;99997.31;;;16.93;52.41
22653;BME280;11493;43.344;26.226;2023-05-13T07:29:44;99997.72;;;17.16;51.58
22653;BME280;11493;43.344;26.226;2023-05-13T07:32:12;99992.16;;;17.49;49.01
22653;BME280;11493;43.344;26.226;2023-05-13T07:34:39;99987.91;;;17.88;47.68
22653;BME280;11493;43.344;26.226;2023-05-13T07:37:06;99998.69;;;18.14;47.81
22653;BME280;11493;43.344;26.226;2023-05-13T07:39:32;99994.50;;;18.45;47.64
22653;BME280;11493;43.344;26.226;2023-05-13T07:42:00;99994.00;;;18.55;46.11
22653;BME280;11493;43.344;26.226;2023-05-13T07:44:27;99992.53;;;18.33;46.01
22653;BME280;11493;43.344;26.226;2023-05-13T07:46:55;99998.91;;;18.33;41.30
22653;BME280;11493;43.344;26.226;2023-05-13T07:49:22;99996.81;;;18.43;42.67
22653;BME280;11493;43.344;26.226;2023-05-13T07:51:49;99985.09;;;18.37;42.85
22653;BME280;11493;43.344;26.226;2023-05-13T07:54:16;99991.69;;;18.57;41.90
22653;BME280;11493;43.344;26.226;2023-05-13T07:56:44;99985.97;;;18.65;41.01
22653;BME280;11493;43.344;26.226;2023-05-13T07:59:12;99966.53;;;18.29;40.36
22653;BME280;11493;43.344;26.226;2023-05-13T08:01:39;99977.34;;;18.06;42.52
22653;BME280;11493;43.344;26.226;2023-05-13T08:04:06;99990.09;;;18.31;41.46
22653;BME280;11493;43.344;26.226;2023-05-13T08:06:33;99982.44;;;18.28;40.92
22653;BME280;11493;43.344;26.226;2023-05-13T08:09:00;99974.78;;;18.25;40.64
22653;BME280;11493;43.344;26.226;2023-05-13T08:11:27;99992.63;;;18.49;39.96
22653;BME280;11493;43.344;26.226;2023-05-13T08:13:54;99990.03;;;18.68;40.38
22653;BME280;11493;43.344;26.226;2023-05-13T08:16:21;99988.97;;;18.73;40.40
22653;BME280;11493;43.344;26.226;2023-05-13T08:18:48;99984.66;;;18.75;41.44
22653;BME280;11493;43.344;26.226;2023-05-13T08:21:15;99984.25;;;18.89;39.99
22653;BME280;11493;43.344;26.226;2023-05-13T08:23:42;99988.13;;;18.84;40.09
22653;BME280;11493;43.344;26.226;2023-05-13T08:26:12;99973.16;;;18.77;39.92
22653;BME280;11493;43.344;26.226;2023-05-13T08:28:39;99977.47;;;19.02;40.42
22653;BME280;11493;43.344;26.226;2023-05-13T08:31:10;99962.41;;;18.91;39.66
22653;BME280;11493;43.344;26.226;2023-05-13T08:33:38;99972.56;;;18.83;41.47
22653;BME280;11493;43.344;26.226;2023-05-13T08:36:08;99979.50;;;18.89;43.15
22653;BME280;11493;43.344;26.226;2023-05-13T08:38:35;99986.91;;;18.97;42.72
22653;BME280;11493;43.344;26.226;2023-05-13T08:41:05;99991.31;;;18.98;41.88
22653;BME280;11493;43.344;26.226;2023-05-13T08:43:32;99992.63;;;19.17;41.61
22653;BME280;11493;43.344;26.226;2023-05-13T08:46:02;99986.16;;;19.13;41.86
22653;BME280;11493;43.344;26.226;2023-05-13T08:48:30;99999.59;;;19.23;41.77
22653;BME280;11493;43.344;26.226;2023-05-13T08:50:58;100004.09;;;18.99;42.24
22653;BME280;11493;43.344;26.226;2023-05-13T08:53:27;99981.78;;;18.99;43.92
22653;BME280;11493;43.344;26.226;2023-05-13T08:55:55;99987.75;;;19.14;42.80
22653;BME280;11493;43.344;26.226;2023-05-13T08:58:23;100005.00;;;19.03;42.25
22653;BME280;11493;43.344;26.226;2023-05-13T09:00:51;99992.28;;;18.90;42.67
22653;BME280;11493;43.344;26.226;2023-05-13T09:03:20;99984.47;;;18.56;43.62
22653;BME280;11493;43.344;26.226;2023-05-13T09:05:47;99985.56;;;18.79;42.87
22653;BME280;11493;43.344;26.226;2023-05-13T09:08:14;99980.16;;;18.98;44.29
22653;BME280;11493;43.344;26.226;2023-05-13T09:10:41;99977.56;;;19.06;43.15
22653;BME280;11493;43.344;26.226;2023-05-13T09:13:10;99977.53;;;19.18;42.66
22653;BME280;11493;43.344;26.226;2023-05-13T09:15:40;99976.66;;;19.01;42.78
22653;BME280;11493;43.344;26.226;2023-05-13T09:18:08;99972.56;;;19.11;42.62
22653;BME280;11493;43.344;26.226;2023-05-13T09:20:35;99977.16;;;19.19;43.19
22653;BME280;11493;43.344;26.226;2023-05-13T09:23:07;99982.84;;;19.23;43.15
22653;BME280;11493;43.344;26.226;2023-05-13T09:25:36;99982.75;;;19.35;41.82
22653;BME280;11493;43.344;26.226;2023-05-13T09:28:05;99982.47;;;19.24;41.65
22653;BME280;11493;43.344;26.226;2023-05-13T09:30:35;99991.94;;;19.35;42.69
22653;BME280;11493;43.344;26.226;2023-05-13T09:33:10;99999.50;;;19.35;42.56
22653;BME280;11493;43.344;26.226;2023-05-13T09:35:42;99981.94;;;19.19;41.86
22653;BME280;11493;43.344;26.226;2023-05-13T09:38:34;99978.44;;;19.37;41.25
22653;BME280;11493;43.344;26.226;2023-05-13T09:41:04;99963.00;;;19.12;42.16
22653;BME280;11493;43.344;26.226;2023-05-13T09:43:32;99965.13;;;19.47;41.28
22653;BME280;11493;43.344;26.226;2023-05-13T09:46:03;99968.41;;;19.64;42.22
22653;BME280;11493;43.344;26.226;2023-05-13T09:48:31;99971.81;;;19.74;40.88
22653;BME280;11493;43.344;26.226;2023-05-13T09:51:05;99957.94;;;19.61;39.17
22653;BME280;11493;43.344;26.226;2023-05-13T09:53:33;99960.28;;;19.59;38.76
22653;BME280;11493;43.344;26.226;2023-05-13T09:59:03;99944.16;;;19.84;39.47
22653;BME280;11493;43.344;26.226;2023-05-13T10:01:31;99947.84;;;20.04;37.42
22653;BME280;11493;43.344;26.226;2023-05-13T10:04:01;99951.50;;;20.08;34.19
22653;BME280;11493;43.344;26.226;2023-05-13T10:06:29;99948.25;;;20.06;34.74
22653;BME280;11493;43.344;26.226;2023-05-13T10:08:58;99953.16;;;20.28;34.96
22653;BME280;11493;43.344;26.226;2023-05-13T10:11:28;99963.03;;;20.07;33.69
22653;BME280;11493;43.344;26.226;2023-05-13T10:14:01;99948.19;;;20.38;31.88
22653;BME280;11493;43.344;26.226;2023-05-13T10:16:30;99929.56;;;20.26;33.20
22653;BME280;11493;43.344;26.226;2023-05-13T10:18:58;99916.16;;;20.16;33.58
22653;BME280;11493;43.344;26.226;2023-05-13T10:21:28;99935.56;;;20.44;33.63
22653;BME280;11493;43.344;26.226;2023-05-13T10:23:56;99935.16;;;20.26;34.57
22653;BME280;11493;43.344;26.226;2023-05-13T10:26:24;99932.00;;;20.27;34.96
22653;BME280;11493;43.344;26.226;2023-05-13T10:28:53;99945.63;;;20.13;35.60
22653;BME280;11493;43.344;26.226;2023-05-13T10:31:20;99936.34;;;20.09;33.41
22653;BME280;11493;43.344;26.226;2023-05-13T10:33:47;99946.34;;;20.10;34.31
22653;BME280;11493;43.344;26.226;2023-05-13T10:45:00;99935.59;;;20.63;34.89
22653;BME280;11493;43.344;26.226;2023-05-13T10:47:31;99941.03;;;20.75;34.73
22653;BME280;11493;43.344;26.226;2023-05-13T10:49:58;99948.97;;;20.92;34.41
22653;BME280;11493;43.344;26.226;2023-05-13T10:52:45;99940.78;;;20.84;35.44
22653;BME280;11493;43.344;26.226;2023-05-13T10:55:15;99934.31;;;20.99;31.71
22653;BME280;11493;43.344;26.226;2023-05-13T11:00:41;99947.25;;;20.88;33.14
22653;BME280;11493;43.344;26.226;2023-05-13T11:03:33;99922.63;;;20.74;34.00
22653;BME280;11493;43.344;26.226;2023-05-13T11:06:14;99941.31;;;20.89;34.90
22653;BME280;11493;43.344;26.226;2023-05-13T11:08:43;99931.06;;;20.97;35.77
22653;BME280;11493;43.344;26.226;2023-05-13T11:16:25;99943.44;;;20.96;34.86
22653;BME280;11493;43.344;26.226;2023-05-13T11:18:53;99935.69;;;21.09;36.75
22653;BME280;11493;43.344;26.226;2023-05-13T11:21:34;99935.47;;;20.98;37.62
22653;BME280;11493;43.344;26.226;2023-05-13T11:24:03;99942.84;;;21.25;37.41
22653;BME280;11493;43.344;26.226;2023-05-13T11:26:45;99931.28;;;21.50;36.78
22653;BME280;11493;43.344;26.226;2023-05-13T11:29:13;99939.09;;;21.63;36.44
22653;BME280;11493;43.344;26.226;2023-05-13T11:31:48;99941.00;;;21.82;35.06
22653;BME280;11493;43.344;26.226;2023-05-13T11:34:16;99932.44;;;21.98;34.24
22653;BME280;11493;43.344;26.226;2023-05-13T11:36:55;99924.38;;;21.93;33.99
22653;BME280;11493;43.344;26.226;2023-05-13T11:39:23;99933.59;;;21.93;34.45
22653;BME280;11493;43.344;26.226;2023-05-13T11:41:52;99943.09;;;22.12;34.10
22653;BME280;11493;43.344;26.226;2023-05-13T11:44:23;99939.16;;;22.16;33.64
22653;BME280;11493;43.344;26.226;2023-05-13T11:46:57;99938.09;;;22.24;33.13
22653;BME280;11493;43.344;26.226;2023-05-13T11:49:42;99932.19;;;22.33;34.39
22653;BME280;11493;43.344;26.226;2023-05-13T11:52:10;99950.72;;;22.71;34.01
22653;BME280;11493;43.344;26.226;2023-05-13T11:54:50;99943.16;;;22.45;34.05
22653;BME280;11493;43.344;26.226;2023-05-13T12:00:02;99955.06;;;22.09;34.35
22653;BME280;11493;43.344;26.226;2023-05-13T12:02:37;99947.91;;;22.11;33.43
22653;BME280;11493;43.344;26.226;2023-05-13T12:05:07;99952.59;;;22.04;33.15
22653;BME280;11493;43.344;26.226;2023-05-13T12:07:36;99955.00;;;22.05;33.44
22653;BME280;11493;43.344;26.226;2023-05-13T12:10:05;99956.16;;;22.27;34.54
22653;BME280;11493;43.344;26.226;2023-05-13T12:12:34;99945.09;;;22.41;34.70
22653;BME280;11493;43.344;26.226;2023-05-13T12:15:03;99944.03;;;22.79;33.72
22653;BME280;11493;43.344;26.226;2023-05-13T12:17:31;99938.44;;;22.79;33.49
22653;BME280;11493;43.344;26.226;2023-05-13T12:27:58;99930.66;;;22.39;34.14
22653;BME280;11493;43.344;26.226;2023-05-13T12:30:32;99921.44;;;22.39;34.72
22653;BME280;11493;43.344;26.226;2023-05-13T12:33:00;99934.56;;;22.61;34.68
22653;BME280;11493;43.344;26.226;2023-05-13T12:35:27;99919.91;;;22.75;34.72
22653;BME280;11493;43.344;26.226;2023-05-13T12:38:04;99922.34;;;22.76;35.18
22653;BME280;11493;43.344;26.226;2023-05-13T12:40:31;99922.44;;;22.83;34.97
22653;BME280;11493;43.344;26.226;2023-05-13T12:43:01;99922.50;;;22.87;35.23
22653;BME280;11493;43.344;26.226;2023-05-13T12:45:29;99917.00;;;22.98;35.15
22653;BME280;11493;43.344;26.226;2023-05-13T12:47:57;99908.69;;;22.75;35.13
22653;BME280;11493;43.344;26.226;2023-05-13T12:50:25;99912.78;;;22.81;34.82
22653;BME280;11493;43.344;26.226;2023-05-13T12:52:52;99914.22;;;22.68;35.83
22653;BME280;11493;43.344;26.226;2023-05-13T12:55:20;99906.75;;;22.49;35.51
22653;BME280;11493;43.344;26.226;2023-05-13T12:58:01;99893.19;;;22.21;35.86
22653;BME280;11493;43.344;26.226;2023-05-13T13:00:29;99897.41;;;21.85;36.42
22653;BME280;11493;43.344;26.226;2023-05-13T13:02:56;99896.53;;;21.54;37.18
22653;BME280;11493;43.344;26.226;2023-05-13T13:05:24;99895.84;;;21.61;37.02
22653;BME280;11493;43.344;26.226;2023-05-13T13:07:51;99900.75;;;21.68;37.42
22653;BME280;11493;43.344;26.226;2023-05-13T13:10:18;99892.44;;;21.48;37.63
22653;BME280;11493;43.344;26.226;2023-05-13T13:12:45;99890.19;;;21.57;38.50
22653;BME280;11493;43.344;26.226;2023-05-13T13:15:12;99891.34;;;21.79;38.57
22653;BME280;11493;43.344;26.226;2023-05-13T13:17:39;99899.63;;;21.98;37.24
22653;BME280;11493;43.344;26.226;2023-05-13T13:20:06;99901.88;;;22.12;37.05
22653;BME280;11493;43.344;26.226;2023-05-13T13:22:34;99902.19;;;22.37;37.03
22653;BME280;11493;43.344;26.226;2023-05-13T13:25:05;99894.78;;;22.52;35.71
22653;BME280;11493;43.344;26.226;2023-05-13T13:27:33;99902.44;;;22.55;35.93
22653;BME280;11493;43.344;26.226;2023-05-13T13:30:01;99892.06;;;22.29;36.07
22653;BME280;11493;43.344;26.226;2023-05-13T13:32:28;99887.16;;;22.19;36.59
22653;BME280;11493;43.344;26.226;2023-05-13T13:34:55;99897.19;;;22.20;36.86
22653;BME280;11493;43.344;26.226;2023-05-13T13:37:24;99879.03;;;22.10;36.93